createdAt,value
2018-12-29T00:01:22.191Z,5.30
2018-12-29T00:03:50.805Z,5.30
2018-12-29T00:06:19.484Z,5.40
2018-12-29T00:08:51.063Z,5.40
2018-12-29T00:11:31.525Z,5.30
2018-12-29T00:14:06.085Z,5.30
2018-12-29T00:16:34.689Z,5.30
2018-12-29T00:19:03.515Z,5.30
2018-12-29T00:21:34.705Z,5.40
2018-12-29T00:24:03.051Z,5.40
2018-12-29T00:26:32.219Z,5.30
2018-12-29T00:29:01.350Z,5.30
2018-12-29T00:31:30.025Z,5.30
2018-12-29T00:34:01.559Z,5.30
2018-12-29T00:36:30.449Z,5.30
2018-12-29T00:38:58.889Z,5.20
2018-12-29T00:41:30.186Z,5.20
2018-12-29T00:43:58.763Z,5.20
2018-12-29T00:46:27.495Z,5.20
2018-12-29T00:48:56.226Z,5.20
2018-12-29T00:51:24.886Z,5.20
2018-12-29T00:53:53.511Z,5.20
2018-12-29T00:56:22.337Z,5.20
2018-12-29T00:58:53.276Z,5.10
2018-12-29T01:01:21.964Z,5.10
2018-12-29T01:03:50.524Z,5.10
2018-12-29T01:06:19.388Z,5.20
2018-12-29T01:08:47.990Z,5.20
2018-12-29T01:11:16.609Z,5.10
2018-12-29T01:13:45.220Z,5.10
2018-12-29T01:16:14.134Z,5.20
2018-12-29T01:18:43.075Z,5.20
2018-12-29T01:21:11.652Z,5.10
2018-12-29T01:23:43.266Z,5.10
2018-12-29T01:26:14.016Z,5.10
2018-12-29T01:28:42.728Z,5.10
2018-12-29T01:31:11.262Z,5.20
2018-12-29T01:33:42.560Z,5.10
2018-12-29T01:36:11.098Z,5.10
2018-12-29T01:38:40.642Z,5.20
2018-12-29T01:41:09.290Z,5.20
2018-12-29T01:43:39.862Z,5.10
2018-12-29T01:46:08.393Z,5.20
2018-12-29T01:48:39.470Z,5.10
2018-12-29T01:51:07.923Z,5.10
2018-12-29T01:53:36.378Z,5.10
2018-12-29T01:56:05.170Z,5.10
2018-12-29T01:58:33.825Z,5.10
2018-12-29T02:01:02.338Z,5.10
2018-12-29T02:03:30.826Z,5.00
2018-12-29T02:05:59.420Z,5.00
2018-12-29T02:08:27.987Z,5.10
2018-12-29T02:10:56.387Z,5.10
2018-12-29T02:13:28.325Z,5.10
2018-12-29T02:15:56.803Z,5.10
2018-12-29T02:18:25.491Z,5.10
2018-12-29T02:20:54.211Z,5.10
2018-12-29T02:23:22.603Z,5.10
2018-12-29T02:25:51.198Z,5.10
2018-12-29T02:28:19.799Z,5.10
2018-12-29T02:30:48.332Z,5.10
2018-12-29T02:33:16.861Z,5.10
2018-12-29T02:35:48.415Z,5.10
2018-12-29T02:38:17.101Z,5.10
2018-12-29T02:40:45.734Z,5.00
2018-12-29T02:43:14.266Z,5.10
2018-12-29T02:45:42.812Z,5.10
2018-12-29T02:48:11.559Z,5.10
2018-12-29T02:50:40.220Z,5.10
2018-12-29T02:53:08.740Z,5.10
2018-12-29T02:55:37.318Z,5.10
2018-12-29T02:58:05.912Z,5.10
2018-12-29T03:00:34.482Z,5.00
2018-12-29T03:03:04.424Z,5.00
2018-12-29T03:05:33.042Z,5.00
2018-12-29T03:08:04.656Z,5.10
2018-12-29T03:10:33.052Z,5.00
2018-12-29T03:13:01.690Z,5.00
2018-12-29T03:15:30.198Z,5.00
2018-12-29T03:17:58.748Z,5.00
2018-12-29T03:20:27.365Z,5.00
2018-12-29T03:22:55.990Z,5.10
2018-12-29T03:25:24.626Z,5.10
2018-12-29T03:27:53.175Z,5.10
2018-12-29T03:30:22.219Z,5.10
2018-12-29T03:32:50.663Z,5.00
2018-12-29T03:35:19.189Z,5.00
2018-12-29T03:37:47.655Z,5.00
2018-12-29T03:40:17.385Z,5.00
2018-12-29T03:42:45.963Z,5.00
2018-12-29T03:45:14.421Z,5.00
2018-12-29T03:47:43.225Z,5.00
2018-12-29T03:50:12.401Z,4.90
2018-12-29T03:52:43.939Z,4.90
2018-12-29T03:55:13.120Z,4.90
2018-12-29T03:57:42.623Z,4.90
2018-12-29T04:00:11.275Z,4.90
2018-12-29T04:02:42.580Z,4.90
2018-12-29T04:05:11.306Z,4.90
2018-12-29T04:07:40.022Z,4.90
2018-12-29T04:10:11.713Z,4.90
2018-12-29T04:12:40.435Z,4.90
2018-12-29T04:15:09.104Z,4.90
2018-12-29T04:17:37.706Z,4.90
2018-12-29T04:20:06.356Z,4.90
2018-12-29T04:22:34.941Z,4.80
2018-12-29T04:25:03.583Z,4.90
2018-12-29T04:27:32.350Z,4.90
2018-12-29T04:30:00.767Z,4.80
2018-12-29T04:32:29.480Z,4.90
2018-12-29T04:34:58.132Z,4.90
2018-12-29T04:37:26.699Z,4.90
2018-12-29T04:39:55.657Z,4.90
2018-12-29T04:42:24.127Z,4.80
2018-12-29T04:44:53.219Z,4.80
2018-12-29T04:47:21.718Z,4.90
2018-12-29T04:49:50.187Z,4.80
2018-12-29T04:52:20.409Z,4.80
2018-12-29T04:54:48.923Z,4.90
2018-12-29T04:57:17.477Z,4.90
2018-12-29T04:59:46.064Z,4.90
2018-12-29T05:02:14.850Z,4.90
2018-12-29T05:04:43.505Z,4.90
2018-12-29T05:07:12.058Z,4.90
2018-12-29T05:09:40.659Z,4.90
2018-12-29T05:12:09.088Z,5.00
2018-12-29T05:14:37.597Z,4.90
2018-12-29T05:17:06.017Z,4.90
2018-12-29T05:19:34.702Z,4.80
2018-12-29T05:22:04.199Z,4.90
2018-12-29T05:24:32.825Z,4.90
2018-12-29T05:27:01.313Z,4.90
2018-12-29T05:29:29.788Z,4.90
2018-12-29T05:31:59.832Z,4.90
2018-12-29T05:34:28.389Z,4.90
2018-12-29T05:36:56.805Z,4.80
2018-12-29T05:39:25.493Z,4.80
2018-12-29T05:41:53.979Z,4.80
2018-12-29T05:44:22.394Z,4.80
2018-12-29T05:46:50.861Z,4.70
2018-12-29T05:49:19.730Z,4.70
2018-12-29T05:51:48.238Z,4.70
2018-12-29T05:54:16.781Z,4.70
2018-12-29T05:56:45.643Z,4.70
2018-12-29T05:59:14.293Z,4.70
2018-12-29T06:01:42.732Z,4.70
2018-12-29T06:04:11.744Z,4.70
2018-12-29T06:06:40.247Z,4.70
2018-12-29T06:09:08.912Z,4.70
2018-12-29T06:11:37.562Z,4.80
2018-12-29T06:14:06.002Z,4.80
2018-12-29T06:16:34.574Z,4.70
2018-12-29T06:19:03.173Z,4.70
2018-12-29T06:21:31.946Z,4.70
2018-12-29T06:24:00.511Z,4.80
2018-12-29T06:26:30.105Z,4.70
2018-12-29T06:28:58.630Z,4.70
2018-12-29T06:31:30.040Z,4.70
2018-12-29T06:34:01.821Z,4.70
2018-12-29T06:36:32.084Z,4.70
2018-12-29T06:39:00.585Z,4.70
2018-12-29T06:41:29.080Z,4.70
2018-12-29T06:43:57.560Z,4.70
2018-12-29T06:46:34.606Z,4.70
2018-12-29T06:48:57.816Z,4.70
2018-12-29T06:51:26.378Z,4.70
2018-12-29T06:53:54.796Z,4.70
2018-12-29T06:56:23.348Z,4.70
2018-12-29T06:58:51.766Z,4.70
2018-12-29T07:01:20.308Z,4.70
2018-12-29T07:03:48.948Z,4.70
2018-12-29T07:06:17.427Z,4.80
2018-12-29T07:08:45.876Z,4.80
2018-12-29T07:11:14.346Z,4.80
2018-12-29T07:13:42.843Z,4.70
2018-12-29T07:16:11.330Z,4.70
2018-12-29T07:18:39.972Z,4.70
2018-12-29T07:21:08.522Z,4.70
2018-12-29T07:23:37.172Z,4.70
2018-12-29T07:26:05.673Z,4.70
2018-12-29T07:28:34.374Z,4.70
2018-12-29T07:31:02.834Z,4.70
2018-12-29T07:33:31.459Z,4.70
2018-12-29T07:35:59.970Z,4.70
2018-12-29T07:38:28.534Z,4.60
2018-12-29T07:40:57.162Z,4.60
2018-12-29T07:43:25.696Z,4.70
2018-12-29T07:45:54.320Z,4.70
2018-12-29T07:48:22.898Z,4.60
2018-12-29T07:50:51.496Z,4.60
2018-12-29T07:53:19.961Z,4.60
2018-12-29T07:55:48.548Z,4.60
2018-12-29T07:58:35.408Z,4.60
2018-12-29T08:01:03.920Z,4.60
2018-12-29T08:03:32.318Z,4.50
2018-12-29T08:06:00.980Z,4.60
2018-12-29T08:08:29.589Z,4.60
2018-12-29T08:10:58.249Z,4.60
2018-12-29T08:13:26.884Z,4.70
2018-12-29T08:15:58.571Z,4.70
2018-12-29T08:18:27.524Z,4.70
2018-12-29T08:20:57.137Z,4.80
2018-12-29T08:23:25.929Z,4.80
2018-12-29T08:25:54.611Z,4.80
2018-12-29T08:28:23.158Z,4.90
2018-12-29T08:30:51.615Z,4.80
2018-12-29T08:33:20.165Z,4.80
2018-12-29T08:35:49.090Z,4.70
2018-12-29T08:38:17.675Z,4.70
2018-12-29T08:40:46.210Z,4.60
2018-12-29T08:43:15.217Z,4.60
2018-12-29T08:45:43.800Z,4.60
2018-12-29T08:48:14.079Z,4.60
2018-12-29T08:50:42.626Z,4.60
2018-12-29T08:53:11.074Z,4.60
2018-12-29T08:55:39.670Z,4.70
2018-12-29T08:58:09.547Z,4.70
2018-12-29T09:00:38.027Z,4.70
2018-12-29T09:03:06.536Z,4.70
2018-12-29T09:05:35.120Z,4.60
2018-12-29T09:08:05.546Z,4.70
2018-12-29T09:10:34.092Z,4.60
2018-12-29T09:13:02.596Z,4.60
2018-12-29T09:15:31.433Z,4.60
2018-12-29T09:17:59.835Z,4.60
2018-12-29T09:20:28.308Z,4.60
2018-12-29T09:22:56.967Z,4.70
2018-12-29T09:25:25.538Z,4.70
2018-12-29T09:28:03.707Z,4.70
2018-12-29T09:30:34.552Z,4.70
2018-12-29T09:33:04.984Z,4.70
2018-12-29T09:35:37.220Z,4.70
2018-12-29T09:38:05.806Z,4.70
2018-12-29T09:40:34.479Z,4.70
2018-12-29T09:43:03.256Z,4.70
2018-12-29T09:45:31.902Z,4.70
2018-12-29T09:48:00.842Z,4.80
2018-12-29T09:50:29.452Z,4.80
2018-12-29T09:52:58.096Z,4.80
2018-12-29T09:55:26.682Z,4.80
2018-12-29T09:57:56.223Z,4.90
2018-12-29T10:00:24.749Z,4.90
2018-12-29T10:02:53.811Z,4.90
2018-12-29T10:05:25.182Z,4.90
2018-12-29T10:07:57.947Z,4.90
2018-12-29T10:10:26.827Z,4.90
2018-12-29T10:12:56.598Z,5.00
2018-12-29T10:15:28.282Z,5.10
2018-12-29T10:18:00.023Z,5.00
2018-12-29T10:20:28.602Z,5.00
2018-12-29T10:22:57.330Z,4.90
2018-12-29T10:25:25.942Z,4.90
2018-12-29T10:27:54.693Z,4.90
2018-12-29T10:30:23.446Z,4.90
2018-12-29T10:32:53.120Z,5.00
2018-12-29T10:35:23.509Z,5.00
2018-12-29T10:38:00.788Z,5.00
2018-12-29T10:40:43.748Z,5.00
2018-12-29T10:43:12.314Z,5.10
2018-12-29T10:45:41.110Z,5.10
2018-12-29T10:48:09.605Z,5.00
2018-12-29T10:50:38.162Z,5.00
2018-12-29T10:53:06.775Z,5.00
2018-12-29T10:55:35.619Z,4.90
2018-12-29T10:58:04.237Z,4.90
2018-12-29T11:00:35.158Z,4.90
2018-12-29T11:03:03.112Z,4.90
2018-12-29T11:05:32.805Z,4.90
2018-12-29T11:08:01.456Z,4.90
2018-12-29T11:10:30.276Z,4.90
2018-12-29T11:12:59.079Z,4.90
2018-12-29T11:15:27.705Z,4.90
2018-12-29T11:17:56.403Z,4.90
2018-12-29T11:20:25.065Z,4.90
2018-12-29T11:22:56.438Z,4.90
2018-12-29T11:25:24.957Z,4.90
2018-12-29T11:27:53.776Z,4.90
2018-12-29T11:30:22.412Z,4.90
2018-12-29T11:32:51.948Z,4.90
2018-12-29T11:35:20.729Z,4.90
2018-12-29T11:37:49.154Z,4.90
2018-12-29T11:40:17.697Z,5.00
2018-12-29T11:42:48.734Z,5.00
2018-12-29T11:45:17.531Z,4.90
2018-12-29T11:47:49.732Z,5.00
2018-12-29T11:50:16.338Z,5.00
2018-12-29T11:52:46.991Z,4.90
2018-12-29T11:55:15.655Z,4.90
2018-12-29T11:57:44.421Z,4.90
2018-12-29T12:00:13.420Z,5.00
2018-12-29T12:02:42.967Z,4.90
2018-12-29T12:05:11.680Z,5.00
2018-12-29T12:07:41.319Z,5.00
2018-12-29T12:10:10.070Z,5.00
2018-12-29T12:12:39.064Z,5.00
2018-12-29T12:15:07.811Z,5.00
2018-12-29T12:17:36.403Z,5.00
2018-12-29T12:20:05.864Z,5.00
2018-12-29T12:22:34.460Z,5.00
2018-12-29T12:25:03.070Z,5.00
2018-12-29T12:27:32.603Z,5.00
2018-12-29T12:30:02.569Z,5.00
2018-12-29T12:32:31.463Z,5.00
2018-12-29T12:35:02.120Z,5.00
2018-12-29T12:37:32.301Z,5.00
2018-12-29T12:40:02.928Z,5.00
2018-12-29T12:42:31.489Z,5.00
2018-12-29T12:45:40.042Z,5.00
2018-12-29T12:48:44.367Z,5.00
2018-12-29T12:51:19.875Z,5.00
2018-12-29T12:53:48.880Z,4.90
2018-12-29T12:56:37.560Z,4.90
2018-12-29T12:59:06.389Z,4.90
2018-12-29T13:01:34.992Z,4.90
2018-12-29T13:04:05.634Z,4.90
2018-12-29T13:06:34.609Z,4.80
2018-12-29T13:09:04.072Z,4.90
2018-12-29T13:11:32.857Z,4.90
2018-12-29T13:14:01.474Z,4.90
2018-12-29T13:16:29.991Z,4.90
2018-12-29T13:18:58.669Z,4.90
2018-12-29T13:21:27.293Z,4.90
2018-12-29T13:23:56.262Z,4.90
2018-12-29T13:26:27.798Z,4.90
2018-12-29T13:28:56.400Z,4.90
2018-12-29T13:31:24.930Z,4.90
2018-12-29T13:33:53.372Z,4.90
2018-12-29T13:36:27.999Z,4.90
2018-12-29T13:38:57.684Z,4.90
2018-12-29T13:41:26.453Z,5.00
2018-12-29T13:43:55.906Z,5.00
2018-12-29T13:46:24.458Z,5.00
2018-12-29T13:48:53.217Z,5.00
2018-12-29T13:51:21.928Z,5.00
2018-12-29T13:53:50.519Z,5.00
2018-12-29T13:56:19.986Z,5.00
2018-12-29T13:58:48.706Z,5.00
2018-12-29T14:01:17.484Z,5.00
2018-12-29T14:03:45.972Z,5.00
2018-12-29T14:06:14.599Z,5.10
2018-12-29T14:08:43.294Z,5.10
2018-12-29T14:11:11.862Z,5.10
2018-12-29T14:13:40.820Z,5.20
2018-12-29T14:16:09.368Z,5.40
2018-12-29T14:18:40.306Z,5.40
2018-12-29T14:21:09.345Z,5.20
2018-12-29T14:23:37.864Z,5.20
2018-12-29T14:26:09.339Z,5.20
2018-12-29T14:28:38.040Z,5.30
2018-12-29T14:31:10.061Z,5.30
2018-12-29T14:33:38.720Z,5.30
2018-12-29T14:36:07.276Z,5.30
2018-12-29T14:38:35.810Z,5.30
2018-12-29T14:41:04.423Z,5.20
2018-12-29T14:43:33.004Z,5.10
2018-12-29T14:46:01.839Z,5.10
2018-12-29T14:48:35.788Z,5.10
2018-12-29T14:51:03.184Z,5.30
2018-12-29T14:53:31.958Z,5.30
2018-12-29T14:56:06.836Z,5.20
2018-12-29T14:58:53.708Z,5.20
2018-12-29T15:01:18.486Z,5.20
2018-12-29T15:03:49.025Z,5.20
2018-12-29T15:06:17.685Z,5.30
2018-12-29T15:08:48.316Z,5.40
2018-12-29T15:11:16.859Z,5.40
2018-12-29T15:13:45.355Z,5.40
2018-12-29T15:16:15.516Z,5.30
2018-12-29T15:18:44.411Z,5.30
2018-12-29T15:21:13.245Z,5.20
2018-12-29T15:23:41.796Z,5.20
2018-12-29T15:26:10.850Z,5.20
2018-12-29T15:28:43.345Z,5.10
2018-12-29T15:31:16.426Z,5.10
2018-12-29T15:33:44.910Z,5.10
2018-12-29T15:36:16.182Z,5.10
2018-12-29T15:38:43.951Z,5.00
2018-12-29T15:41:15.559Z,5.00
2018-12-29T15:43:44.168Z,5.10
2018-12-29T15:46:12.918Z,5.10
2018-12-29T15:48:41.594Z,5.00
2018-12-29T15:51:10.243Z,5.10
2018-12-29T15:53:57.828Z,5.10
2018-12-29T15:57:21.228Z,5.10
2018-12-29T16:00:29.672Z,5.10
2018-12-29T16:03:00.301Z,5.10
2018-12-29T16:05:48.216Z,5.10
2018-12-29T16:08:22.604Z,5.10
2018-12-29T16:11:47.082Z,5.10
2018-12-29T16:14:18.430Z,5.00
2018-12-29T16:17:05.519Z,5.20
2018-12-29T16:19:34.028Z,5.20
2018-12-29T16:22:02.673Z,5.10
2018-12-29T16:24:31.517Z,5.00
2018-12-29T16:27:15.267Z,5.00
2018-12-29T16:29:47.052Z,4.90
2018-12-29T16:32:20.631Z,5.00
2018-12-29T16:34:51.440Z,5.00
2018-12-29T16:37:24.350Z,5.00
2018-12-29T16:39:54.038Z,4.90
2018-12-29T16:42:41.078Z,5.00
2018-12-29T16:45:30.751Z,5.00
2018-12-29T16:47:59.254Z,5.00
2018-12-29T16:50:29.428Z,5.00
2018-12-29T16:53:04.346Z,5.00
2018-12-29T16:55:37.557Z,5.00
2018-12-29T16:58:14.467Z,4.90
2018-12-29T17:00:48.365Z,4.80
2018-12-29T17:03:17.241Z,4.90
2018-12-29T17:05:49.319Z,4.90
2018-12-29T17:08:18.075Z,4.90
2018-12-29T17:10:52.816Z,4.90
2018-12-29T17:13:21.514Z,4.80
2018-12-29T17:15:49.995Z,4.90
2018-12-29T17:18:18.661Z,4.90
2018-12-29T17:20:47.460Z,4.90
2018-12-29T17:23:20.689Z,4.90
2018-12-29T17:25:49.303Z,4.90
2018-12-29T17:28:18.941Z,4.90
2018-12-29T17:31:10.494Z,4.70
2018-12-29T17:33:58.515Z,4.70
2018-12-29T17:36:27.455Z,4.80
2018-12-29T17:38:56.505Z,4.70
2018-12-29T17:41:29.561Z,4.70
2018-12-29T17:43:59.993Z,4.70
2018-12-29T17:46:30.641Z,4.60
2018-12-29T17:49:01.041Z,4.60
2018-12-29T17:51:32.409Z,4.70
2018-12-29T17:54:02.729Z,4.70
2018-12-29T17:56:33.022Z,4.70
2018-12-29T17:59:03.189Z,4.70
2018-12-29T18:01:31.791Z,4.70
2018-12-29T18:04:23.141Z,4.70
2018-12-29T18:06:50.535Z,4.70
2018-12-29T18:09:25.229Z,4.70
2018-12-29T18:11:51.927Z,4.70
2018-12-29T18:14:20.401Z,4.80
2018-12-29T18:16:50.932Z,4.80
2018-12-29T18:19:20.307Z,4.70
2018-12-29T18:21:48.851Z,4.70
2018-12-29T18:24:37.686Z,4.80
2018-12-29T18:27:06.340Z,4.70
2018-12-29T18:29:37.950Z,4.70
2018-12-29T18:32:06.749Z,4.70
2018-12-29T18:34:35.743Z,4.70
2018-12-29T18:37:07.148Z,4.80
2018-12-29T18:39:37.263Z,4.80
2018-12-29T18:42:05.777Z,4.80
2018-12-29T18:44:34.515Z,4.80
2018-12-29T18:47:03.187Z,4.80
2018-12-29T18:49:38.400Z,4.80
2018-12-29T18:52:07.730Z,4.90
2018-12-29T18:54:39.361Z,4.80
2018-12-29T18:57:11.172Z,4.80
2018-12-29T18:59:54.474Z,4.80
2018-12-29T19:02:23.152Z,4.80
2018-12-29T19:04:55.778Z,4.80
2018-12-29T19:07:26.135Z,4.80
2018-12-29T19:09:55.322Z,4.80
2018-12-29T19:12:29.761Z,4.80
2018-12-29T19:14:58.398Z,4.80
2018-12-29T19:17:27.736Z,4.90
2018-12-29T19:20:00.824Z,4.90
2018-12-29T19:22:34.064Z,4.90
2018-12-29T19:25:02.784Z,5.00
2018-12-29T19:30:43.589Z,5.00
2018-12-29T19:33:31.957Z,4.90
2018-12-29T19:36:43.305Z,4.90
2018-12-29T19:39:12.324Z,5.00
2018-12-29T19:41:46.535Z,5.10
2018-12-29T19:44:11.438Z,5.10
2018-12-29T19:46:42.341Z,5.00
2018-12-29T19:49:11.150Z,5.00
2018-12-29T19:51:39.966Z,5.00
2018-12-29T19:54:10.271Z,5.00
2018-12-29T19:56:39.125Z,5.00
2018-12-29T19:59:08.050Z,5.10
2018-12-29T20:01:36.656Z,5.10
2018-12-29T20:04:05.586Z,5.10
2018-12-29T20:06:34.185Z,5.10
2018-12-29T20:09:02.649Z,5.20
2018-12-29T20:11:31.432Z,5.10
2018-12-29T20:14:00.116Z,5.20
2018-12-29T20:16:28.821Z,5.20
2018-12-29T20:19:06.286Z,5.20
2018-12-29T20:21:34.878Z,5.20
2018-12-29T20:24:07.081Z,5.20
2018-12-29T20:26:41.178Z,5.20
2018-12-29T20:29:12.304Z,5.20
2018-12-29T20:31:48.543Z,5.20
2018-12-29T20:34:17.543Z,5.30
2018-12-29T20:36:46.440Z,5.30
2018-12-29T20:42:18.777Z,5.20
2018-12-29T20:44:54.940Z,5.20
2018-12-29T20:47:34.803Z,5.30
2018-12-29T20:50:09.575Z,5.40
2018-12-29T20:52:39.820Z,5.40
2018-12-29T20:55:17.237Z,5.40
2018-12-29T20:57:52.671Z,5.40
2018-12-29T21:00:34.028Z,5.40
2018-12-29T21:03:09.241Z,5.40
2018-12-29T21:05:49.338Z,5.50
2018-12-29T21:08:25.728Z,5.60
2018-12-29T21:10:56.704Z,5.50
2018-12-29T21:13:28.788Z,5.50
2018-12-29T21:16:09.761Z,5.60
2018-12-29T21:18:40.791Z,5.50
2018-12-29T21:21:14.518Z,5.60
2018-12-29T21:23:49.949Z,5.70
2018-12-29T21:26:21.291Z,5.70
2018-12-29T21:28:52.342Z,5.60
2018-12-29T21:31:24.556Z,5.70
2018-12-29T21:33:59.801Z,5.80
2018-12-29T21:36:34.706Z,5.70
2018-12-29T21:39:04.953Z,5.80
2018-12-29T21:41:36.761Z,5.80
2018-12-29T21:44:09.188Z,5.90
2018-12-29T21:46:39.192Z,5.90
2018-12-29T21:49:07.662Z,5.90
2018-12-29T21:51:36.510Z,5.90
2018-12-29T21:54:07.061Z,5.90
2018-12-29T21:56:35.638Z,5.80
2018-12-29T21:59:06.553Z,5.70
2018-12-29T22:01:37.716Z,5.70
2018-12-29T22:04:07.656Z,5.80
2018-12-29T22:06:36.440Z,5.90
2018-12-29T22:09:09.413Z,5.90
2018-12-29T22:11:39.431Z,5.90
2018-12-29T22:14:08.153Z,5.90
2018-12-29T22:16:39.149Z,5.90
2018-12-29T22:19:27.111Z,5.90
2018-12-29T22:22:00.250Z,5.80
2018-12-29T22:24:31.497Z,5.80
2018-12-29T22:27:00.322Z,5.90
2018-12-29T22:29:28.884Z,5.80
2018-12-29T22:31:58.687Z,5.80
2018-12-29T22:34:38.590Z,5.80
2018-12-29T22:37:07.210Z,5.80
2018-12-29T22:39:43.851Z,5.80
2018-12-29T22:42:10.141Z,5.80
2018-12-29T22:44:40.727Z,5.80
2018-12-29T22:47:23.346Z,5.80
2018-12-29T22:49:59.357Z,5.80
2018-12-29T22:52:30.224Z,5.80
2018-12-29T22:55:05.430Z,5.80
2018-12-29T22:57:35.728Z,5.80
2018-12-29T23:00:14.129Z,5.80
2018-12-29T23:02:44.929Z,5.80
2018-12-29T23:05:52.449Z,5.80
2018-12-29T23:11:54.065Z,5.80
2018-12-29T23:14:38.057Z,5.80
2018-12-29T23:17:25.512Z,5.80
2018-12-29T23:20:00.532Z,5.80
2018-12-29T23:22:27.317Z,5.80
2018-12-29T23:24:55.821Z,5.80
2018-12-29T23:27:49.581Z,5.80
2018-12-29T23:30:08.069Z,5.80
2018-12-29T23:32:54.543Z,5.70
2018-12-29T23:36:10.353Z,5.80
2018-12-29T23:42:36.492Z,5.80
2018-12-29T23:48:09.042Z,5.90
2018-12-29T23:50:39.099Z,5.90
2018-12-29T23:53:07.668Z,6.00
2018-12-29T23:55:36.776Z,6.00
2018-12-29T23:58:35.831Z,6.00
